sensor_id;sensor_type;location;lat;lon;timestamp;P1;durP1;ratioP1;P2;durP2;ratioP2
22388;SDS011;11362;48.102;11.620;2022-12-16T00:01:04;4.20;;;3.80;;
22388;SDS011;11362;48.102;11.620;2022-12-16T00:03:31;4.00;;;3.60;;
22388;SDS011;11362;48.102;11.620;2022-12-16T00:05:57;3.90;;;3.60;;
22388;SDS011;11362;48.102;11.620;2022-12-16T00:08:22;3.70;;;3.40;;
22388;SDS011;11362;48.102;11.620;2022-12-16T00:10:47;4.33;;;3.93;;
22388;SDS011;11362;48.102;11.620;2022-12-16T00:13:13;3.63;;;3.33;;
22388;SDS011;11362;48.102;11.620;2022-12-16T00:15:38;5.03;;;3.60;;
22388;SDS011;11362;48.102;11.620;2022-12-16T00:18:03;3.83;;;3.53;;
22388;SDS011;11362;48.102;11.620;2022-12-16T00:20:28;4.63;;;3.73;;
22388;SDS011;11362;48.102;11.620;2022-12-16T00:22:54;4.20;;;3.80;;
22388;SDS011;11362;48.102;11.620;2022-12-16T00:25:19;3.73;;;3.37;;
22388;SDS011;11362;48.102;11.620;2022-12-16T00:27:44;3.30;;;3.10;;
22388;SDS011;11362;48.102;11.620;2022-12-16T00:30:10;3.10;;;2.90;;
22388;SDS011;11362;48.102;11.620;2022-12-16T00:32:35;4.07;;;3.67;;
22388;SDS011;11362;48.102;11.620;2022-12-16T00:35:01;3.40;;;3.20;;
22388;SDS011;11362;48.102;11.620;2022-12-16T00:37:26;4.27;;;3.70;;
22388;SDS011;11362;48.102;11.620;2022-12-16T00:39:51;4.17;;;3.73;;
22388;SDS011;11362;48.102;11.620;2022-12-16T00:42:16;3.60;;;3.30;;
22388;SDS011;11362;48.102;11.620;2022-12-16T00:44:42;3.50;;;3.30;;
22388;SDS011;11362;48.102;11.620;2022-12-16T00:47:07;4.03;;;3.73;;
22388;SDS011;11362;48.102;11.620;2022-12-16T00:49:32;3.87;;;3.57;;
22388;SDS011;11362;48.102;11.620;2022-12-16T00:51:57;3.33;;;3.03;;
22388;SDS011;11362;48.102;11.620;2022-12-16T00:54:25;2.73;;;2.53;;
22388;SDS011;11362;48.102;11.620;2022-12-16T00:56:51;3.13;;;2.83;;
22388;SDS011;11362;48.102;11.620;2022-12-16T00:59:16;3.73;;;3.03;;
22388;SDS011;11362;48.102;11.620;2022-12-16T01:01:41;3.30;;;3.00;;
22388;SDS011;11362;48.102;11.620;2022-12-16T01:04:06;3.77;;;3.47;;
22388;SDS011;11362;48.102;11.620;2022-12-16T01:06:32;3.67;;;3.37;;
22388;SDS011;11362;48.102;11.620;2022-12-16T01:08:57;2.93;;;2.77;;
22388;SDS011;11362;48.102;11.620;2022-12-16T01:11:22;3.70;;;3.40;;
22388;SDS011;11362;48.102;11.620;2022-12-16T01:13:51;3.33;;;3.13;;
22388;SDS011;11362;48.102;11.620;2022-12-16T01:16:16;3.23;;;3.00;;
22388;SDS011;11362;48.102;11.620;2022-12-16T01:18:42;3.30;;;3.10;;
22388;SDS011;11362;48.102;11.620;2022-12-16T01:21:07;3.13;;;2.93;;
22388;SDS011;11362;48.102;11.620;2022-12-16T01:23:35;3.30;;;3.07;;
22388;SDS011;11362;48.102;11.620;2022-12-16T01:26:01;4.10;;;3.77;;
22388;SDS011;11362;48.102;11.620;2022-12-16T01:28:27;3.10;;;2.90;;
22388;SDS011;11362;48.102;11.620;2022-12-16T01:30:54;3.50;;;3.30;;
22388;SDS011;11362;48.102;11.620;2022-12-16T01:33:20;3.37;;;3.10;;
22388;SDS011;11362;48.102;11.620;2022-12-16T01:35:46;3.00;;;2.80;;
22388;SDS011;11362;48.102;11.620;2022-12-16T01:38:11;3.33;;;3.13;;
22388;SDS011;11362;48.102;11.620;2022-12-16T01:40:36;3.57;;;3.27;;
22388;SDS011;11362;48.102;11.620;2022-12-16T01:43:04;2.90;;;2.70;;
22388;SDS011;11362;48.102;11.620;2022-12-16T01:45:35;3.50;;;3.20;;
22388;SDS011;11362;48.102;11.620;2022-12-16T01:50:55;3.50;;;3.10;;
22388;SDS011;11362;48.102;11.620;2022-12-16T01:53:26;3.10;;;2.90;;
22388;SDS011;11362;48.102;11.620;2022-12-16T01:55:51;3.23;;;2.97;;
22388;SDS011;11362;48.102;11.620;2022-12-16T01:58:21;3.20;;;3.00;;
22388;SDS011;11362;48.102;11.620;2022-12-16T02:00:50;3.40;;;3.17;;
22388;SDS011;11362;48.102;11.620;2022-12-16T02:03:16;3.13;;;2.80;;
22388;SDS011;11362;48.102;11.620;2022-12-16T02:05:42;3.23;;;3.00;;
22388;SDS011;11362;48.102;11.620;2022-12-16T02:08:16;2.83;;;2.63;;
22388;SDS011;11362;48.102;11.620;2022-12-16T02:18:23;3.37;;;3.13;;
22388;SDS011;11362;48.102;11.620;2022-12-16T02:21:04;3.53;;;3.33;;
22388;SDS011;11362;48.102;11.620;2022-12-16T02:23:53;3.03;;;2.83;;
22388;SDS011;11362;48.102;11.620;2022-12-16T02:29:04;2.90;;;2.70;;
22388;SDS011;11362;48.102;11.620;2022-12-16T02:31:48;3.20;;;2.90;;
22388;SDS011;11362;48.102;11.620;2022-12-16T02:37:20;2.90;;;2.77;;
22388;SDS011;11362;48.102;11.620;2022-12-16T02:39:59;4.40;;;3.07;;
22388;SDS011;11362;48.102;11.620;2022-12-16T02:47:40;2.93;;;2.73;;
22388;SDS011;11362;48.102;11.620;2022-12-16T02:50:29;3.27;;;3.07;;
22388;SDS011;11362;48.102;11.620;2022-12-16T02:52:58;2.83;;;2.70;;
22388;SDS011;11362;48.102;11.620;2022-12-16T02:55:28;3.00;;;2.80;;
22388;SDS011;11362;48.102;11.620;2022-12-16T03:00:46;2.80;;;2.70;;
22388;SDS011;11362;48.102;11.620;2022-12-16T03:03:23;3.07;;;2.87;;
22388;SDS011;11362;48.102;11.620;2022-12-16T03:05:55;2.70;;;2.60;;
22388;SDS011;11362;48.102;11.620;2022-12-16T03:10:55;2.90;;;2.70;;
22388;SDS011;11362;48.102;11.620;2022-12-16T03:13:23;2.57;;;2.40;;
22388;SDS011;11362;48.102;11.620;2022-12-16T03:15:52;2.93;;;2.83;;
22388;SDS011;11362;48.102;11.620;2022-12-16T03:18:19;2.47;;;2.27;;
22388;SDS011;11362;48.102;11.620;2022-12-16T03:20:49;2.50;;;2.40;;
22388;SDS011;11362;48.102;11.620;2022-12-16T03:23:18;2.63;;;2.40;;
22388;SDS011;11362;48.102;11.620;2022-12-16T03:26:07;2.37;;;2.27;;
22388;SDS011;11362;48.102;11.620;2022-12-16T03:28:47;2.50;;;2.30;;
22388;SDS011;11362;48.102;11.620;2022-12-16T03:31:29;3.17;;;2.97;;
22388;SDS011;11362;48.102;11.620;2022-12-16T03:34:04;2.73;;;2.63;;
22388;SDS011;11362;48.102;11.620;2022-12-16T03:36:36;2.77;;;2.57;;
22388;SDS011;11362;48.102;11.620;2022-12-16T03:39:03;2.73;;;2.53;;
22388;SDS011;11362;48.102;11.620;2022-12-16T03:41:32;2.43;;;2.33;;
22388;SDS011;11362;48.102;11.620;2022-12-16T03:43:59;2.30;;;2.20;;
22388;SDS011;11362;48.102;11.620;2022-12-16T03:46:25;2.60;;;2.40;;
22388;SDS011;11362;48.102;11.620;2022-12-16T03:48:51;2.33;;;2.23;;
22388;SDS011;11362;48.102;11.620;2022-12-16T03:51:17;2.40;;;2.30;;
22388;SDS011;11362;48.102;11.620;2022-12-16T03:53:43;2.47;;;2.37;;
22388;SDS011;11362;48.102;11.620;2022-12-16T03:56:09;2.40;;;2.20;;
22388;SDS011;11362;48.102;11.620;2022-12-16T03:58:35;2.50;;;2.40;;
22388;SDS011;11362;48.102;11.620;2022-12-16T04:01:00;2.40;;;2.30;;
22388;SDS011;11362;48.102;11.620;2022-12-16T04:03:25;2.57;;;2.37;;
22388;SDS011;11362;48.102;11.620;2022-12-16T04:05:51;2.57;;;2.47;;
22388;SDS011;11362;48.102;11.620;2022-12-16T04:08:16;2.67;;;2.57;;
22388;SDS011;11362;48.102;11.620;2022-12-16T04:10:41;2.80;;;2.70;;
22388;SDS011;11362;48.102;11.620;2022-12-16T04:13:08;2.60;;;2.40;;
22388;SDS011;11362;48.102;11.620;2022-12-16T04:15:33;2.90;;;2.80;;
22388;SDS011;11362;48.102;11.620;2022-12-16T04:17:59;2.77;;;2.60;;
22388;SDS011;11362;48.102;11.620;2022-12-16T04:20:26;2.63;;;2.53;;
22388;SDS011;11362;48.102;11.620;2022-12-16T04:22:55;2.50;;;2.40;;
22388;SDS011;11362;48.102;11.620;2022-12-16T04:25:21;2.60;;;2.43;;
22388;SDS011;11362;48.102;11.620;2022-12-16T04:27:50;2.57;;;2.47;;
22388;SDS011;11362;48.102;11.620;2022-12-16T04:30:16;2.83;;;2.63;;
22388;SDS011;11362;48.102;11.620;2022-12-16T04:32:42;2.43;;;2.33;;
22388;SDS011;11362;48.102;11.620;2022-12-16T04:35:08;2.63;;;2.50;;
22388;SDS011;11362;48.102;11.620;2022-12-16T04:37:33;2.93;;;2.60;;
22388;SDS011;11362;48.102;11.620;2022-12-16T04:39:58;2.67;;;2.57;;
22388;SDS011;11362;48.102;11.620;2022-12-16T04:42:24;2.70;;;2.60;;
22388;SDS011;11362;48.102;11.620;2022-12-16T04:44:49;2.53;;;2.43;;
22388;SDS011;11362;48.102;11.620;2022-12-16T04:47:14;2.70;;;2.60;;
22388;SDS011;11362;48.102;11.620;2022-12-16T04:49:40;2.33;;;2.23;;
22388;SDS011;11362;48.102;11.620;2022-12-16T04:52:05;2.97;;;2.77;;
22388;SDS011;11362;48.102;11.620;2022-12-16T04:54:30;3.03;;;2.83;;
22388;SDS011;11362;48.102;11.620;2022-12-16T04:56:55;2.43;;;2.33;;
22388;SDS011;11362;48.102;11.620;2022-12-16T04:59:21;2.53;;;2.43;;
22388;SDS011;11362;48.102;11.620;2022-12-16T05:01:46;2.70;;;2.50;;
22388;SDS011;11362;48.102;11.620;2022-12-16T05:04:11;3.10;;;2.80;;
22388;SDS011;11362;48.102;11.620;2022-12-16T05:06:37;2.63;;;2.50;;
22388;SDS011;11362;48.102;11.620;2022-12-16T05:09:02;2.87;;;2.70;;
22388;SDS011;11362;48.102;11.620;2022-12-16T05:11:28;3.07;;;2.87;;
22388;SDS011;11362;48.102;11.620;2022-12-16T05:13:53;2.43;;;2.33;;
22388;SDS011;11362;48.102;11.620;2022-12-16T05:16:18;3.13;;;2.93;;
22388;SDS011;11362;48.102;11.620;2022-12-16T05:18:44;2.60;;;2.40;;
22388;SDS011;11362;48.102;11.620;2022-12-16T05:21:09;3.07;;;2.87;;
22388;SDS011;11362;48.102;11.620;2022-12-16T05:23:34;3.00;;;2.80;;
22388;SDS011;11362;48.102;11.620;2022-12-16T05:26:00;2.57;;;2.43;;
22388;SDS011;11362;48.102;11.620;2022-12-16T05:28:25;3.30;;;3.10;;
22388;SDS011;11362;48.102;11.620;2022-12-16T05:30:50;2.63;;;2.50;;
22388;SDS011;11362;48.102;11.620;2022-12-16T05:33:16;2.73;;;2.53;;
22388;SDS011;11362;48.102;11.620;2022-12-16T05:35:41;2.77;;;2.63;;
22388;SDS011;11362;48.102;11.620;2022-12-16T05:38:06;2.60;;;2.50;;
22388;SDS011;11362;48.102;11.620;2022-12-16T05:40:32;3.30;;;3.10;;
22388;SDS011;11362;48.102;11.620;2022-12-16T05:42:57;3.20;;;3.00;;
22388;SDS011;11362;48.102;11.620;2022-12-16T05:45:22;2.93;;;2.73;;
22388;SDS011;11362;48.102;11.620;2022-12-16T05:47:47;3.10;;;2.90;;
22388;SDS011;11362;48.102;11.620;2022-12-16T05:50:13;3.27;;;3.07;;
22388;SDS011;11362;48.102;11.620;2022-12-16T05:52:38;3.23;;;3.03;;
22388;SDS011;11362;48.102;11.620;2022-12-16T05:55:04;3.13;;;2.93;;
22388;SDS011;11362;48.102;11.620;2022-12-16T05:57:29;3.73;;;2.80;;
22388;SDS011;11362;48.102;11.620;2022-12-16T05:59:55;7.87;;;3.23;;
22388;SDS011;11362;48.102;11.620;2022-12-16T06:02:20;3.80;;;3.03;;
22388;SDS011;11362;48.102;11.620;2022-12-16T06:04:45;4.93;;;2.90;;
22388;SDS011;11362;48.102;11.620;2022-12-16T06:07:10;8.03;;;3.47;;
22388;SDS011;11362;48.102;11.620;2022-12-16T06:09:36;3.83;;;3.47;;
22388;SDS011;11362;48.102;11.620;2022-12-16T06:12:01;6.37;;;3.40;;
22388;SDS011;11362;48.102;11.620;2022-12-16T06:14:26;11.37;;;4.50;;
22388;SDS011;11362;48.102;11.620;2022-12-16T06:16:52;12.97;;;4.47;;
22388;SDS011;11362;48.102;11.620;2022-12-16T06:19:17;12.03;;;4.80;;
22388;SDS011;11362;48.102;11.620;2022-12-16T06:21:42;10.33;;;4.80;;
22388;SDS011;11362;48.102;11.620;2022-12-16T06:24:08;11.07;;;4.47;;
22388;SDS011;11362;48.102;11.620;2022-12-16T06:26:33;14.37;;;4.80;;
22388;SDS011;11362;48.102;11.620;2022-12-16T06:28:58;11.80;;;5.20;;
22388;SDS011;11362;48.102;11.620;2022-12-16T06:31:23;13.43;;;4.80;;
22388;SDS011;11362;48.102;11.620;2022-12-16T06:33:49;8.50;;;4.30;;
22388;SDS011;11362;48.102;11.620;2022-12-16T06:36:14;14.37;;;5.00;;
22388;SDS011;11362;48.102;11.620;2022-12-16T06:38:39;10.17;;;4.53;;
22388;SDS011;11362;48.102;11.620;2022-12-16T06:41:05;7.97;;;4.63;;
22388;SDS011;11362;48.102;11.620;2022-12-16T06:43:30;10.40;;;4.63;;
22388;SDS011;11362;48.102;11.620;2022-12-16T06:45:55;7.03;;;4.27;;
22388;SDS011;11362;48.102;11.620;2022-12-16T06:48:20;11.60;;;4.30;;
22388;SDS011;11362;48.102;11.620;2022-12-16T06:50:46;7.53;;;4.40;;
22388;SDS011;11362;48.102;11.620;2022-12-16T06:53:11;7.37;;;3.93;;
22388;SDS011;11362;48.102;11.620;2022-12-16T06:55:36;6.33;;;4.20;;
22388;SDS011;11362;48.102;11.620;2022-12-16T06:58:02;7.30;;;3.90;;
22388;SDS011;11362;48.102;11.620;2022-12-16T07:00:27;9.20;;;4.53;;
22388;SDS011;11362;48.102;11.620;2022-12-16T07:02:52;4.80;;;4.30;;
22388;SDS011;11362;48.102;11.620;2022-12-16T07:05:18;8.37;;;4.20;;
22388;SDS011;11362;48.102;11.620;2022-12-16T07:07:49;6.17;;;4.27;;
22388;SDS011;11362;48.102;11.620;2022-12-16T07:10:16;7.20;;;4.87;;
22388;SDS011;11362;48.102;11.620;2022-12-16T07:12:41;10.30;;;5.10;;
22388;SDS011;11362;48.102;11.620;2022-12-16T07:15:06;5.90;;;4.50;;
22388;SDS011;11362;48.102;11.620;2022-12-16T07:17:32;10.70;;;4.23;;
22388;SDS011;11362;48.102;11.620;2022-12-16T07:19:57;7.03;;;4.33;;
22388;SDS011;11362;48.102;11.620;2022-12-16T07:22:22;9.80;;;4.70;;
22388;SDS011;11362;48.102;11.620;2022-12-16T07:24:48;5.97;;;4.43;;
22388;SDS011;11362;48.102;11.620;2022-12-16T07:27:13;10.07;;;5.13;;
22388;SDS011;11362;48.102;11.620;2022-12-16T07:29:38;11.10;;;4.73;;
22388;SDS011;11362;48.102;11.620;2022-12-16T07:32:04;11.13;;;5.03;;
22388;SDS011;11362;48.102;11.620;2022-12-16T07:34:29;5.80;;;3.90;;
22388;SDS011;11362;48.102;11.620;2022-12-16T07:36:54;10.43;;;4.83;;
22388;SDS011;11362;48.102;11.620;2022-12-16T07:39:19;8.37;;;5.43;;
22388;SDS011;11362;48.102;11.620;2022-12-16T07:41:45;5.80;;;4.60;;
22388;SDS011;11362;48.102;11.620;2022-12-16T07:44:10;4.80;;;4.20;;
22388;SDS011;11362;48.102;11.620;2022-12-16T07:46:35;8.73;;;4.60;;
22388;SDS011;11362;48.102;11.620;2022-12-16T07:49:01;6.20;;;4.80;;
22388;SDS011;11362;48.102;11.620;2022-12-16T07:51:26;8.27;;;4.97;;
22388;SDS011;11362;48.102;11.620;2022-12-16T07:53:51;8.00;;;4.93;;
22388;SDS011;11362;48.102;11.620;2022-12-16T07:56:17;8.50;;;5.67;;
22388;SDS011;11362;48.102;11.620;2022-12-16T07:58:42;9.67;;;5.43;;
22388;SDS011;11362;48.102;11.620;2022-12-16T08:01:07;5.53;;;4.80;;
22388;SDS011;11362;48.102;11.620;2022-12-16T08:03:32;6.37;;;5.27;;
22388;SDS011;11362;48.102;11.620;2022-12-16T08:05:58;9.70;;;5.23;;
22388;SDS011;11362;48.102;11.620;2022-12-16T08:08:23;7.47;;;4.93;;
22388;SDS011;11362;48.102;11.620;2022-12-16T08:10:48;11.87;;;5.40;;
22388;SDS011;11362;48.102;11.620;2022-12-16T08:13:14;7.57;;;5.20;;
22388;SDS011;11362;48.102;11.620;2022-12-16T08:15:39;5.87;;;5.37;;
22388;SDS011;11362;48.102;11.620;2022-12-16T08:18:04;8.20;;;5.93;;
22388;SDS011;11362;48.102;11.620;2022-12-16T08:20:30;7.80;;;5.00;;
22388;SDS011;11362;48.102;11.620;2022-12-16T08:22:55;8.23;;;4.93;;
22388;SDS011;11362;48.102;11.620;2022-12-16T08:25:20;6.53;;;5.23;;
22388;SDS011;11362;48.102;11.620;2022-12-16T08:27:45;8.33;;;5.80;;
22388;SDS011;11362;48.102;11.620;2022-12-16T08:30:11;6.13;;;5.53;;
22388;SDS011;11362;48.102;11.620;2022-12-16T08:32:36;7.07;;;5.40;;
22388;SDS011;11362;48.102;11.620;2022-12-16T08:35:02;7.77;;;5.63;;
22388;SDS011;11362;48.102;11.620;2022-12-16T08:37:27;6.50;;;5.30;;
22388;SDS011;11362;48.102;11.620;2022-12-16T08:39:52;6.53;;;5.13;;
22388;SDS011;11362;48.102;11.620;2022-12-16T08:42:18;5.93;;;5.10;;
22388;SDS011;11362;48.102;11.620;2022-12-16T08:44:43;6.03;;;5.43;;
22388;SDS011;11362;48.102;11.620;2022-12-16T08:47:08;6.67;;;5.20;;
22388;SDS011;11362;48.102;11.620;2022-12-16T08:49:33;7.30;;;5.20;;
22388;SDS011;11362;48.102;11.620;2022-12-16T08:51:59;5.90;;;5.03;;
22388;SDS011;11362;48.102;11.620;2022-12-16T08:54:24;6.43;;;5.60;;
22388;SDS011;11362;48.102;11.620;2022-12-16T08:56:50;5.80;;;5.30;;
22388;SDS011;11362;48.102;11.620;2022-12-16T08:59:15;7.17;;;5.07;;
22388;SDS011;11362;48.102;11.620;2022-12-16T09:01:40;6.97;;;5.30;;
22388;SDS011;11362;48.102;11.620;2022-12-16T09:04:06;5.80;;;5.30;;
22388;SDS011;11362;48.102;11.620;2022-12-16T09:06:31;6.03;;;5.13;;
22388;SDS011;11362;48.102;11.620;2022-12-16T09:08:56;5.67;;;5.17;;
22388;SDS011;11362;48.102;11.620;2022-12-16T09:11:22;5.80;;;5.30;;
22388;SDS011;11362;48.102;11.620;2022-12-16T09:13:47;5.87;;;5.37;;
22388;SDS011;11362;48.102;11.620;2022-12-16T09:16:12;6.07;;;5.10;;
22388;SDS011;11362;48.102;11.620;2022-12-16T09:18:38;5.47;;;5.07;;
22388;SDS011;11362;48.102;11.620;2022-12-16T09:21:03;6.47;;;5.40;;
22388;SDS011;11362;48.102;11.620;2022-12-16T09:23:28;5.73;;;5.23;;
22388;SDS011;11362;48.102;11.620;2022-12-16T09:25:57;5.60;;;5.10;;
22388;SDS011;11362;48.102;11.620;2022-12-16T09:28:22;6.03;;;5.30;;
22388;SDS011;11362;48.102;11.620;2022-12-16T09:30:47;5.90;;;5.30;;
22388;SDS011;11362;48.102;11.620;2022-12-16T09:33:13;7.00;;;6.40;;
22388;SDS011;11362;48.102;11.620;2022-12-16T09:35:38;6.13;;;5.53;;
22388;SDS011;11362;48.102;11.620;2022-12-16T09:38:03;5.90;;;5.30;;
22388;SDS011;11362;48.102;11.620;2022-12-16T09:40:28;5.33;;;4.83;;
22388;SDS011;11362;48.102;11.620;2022-12-16T09:48:50;6.90;;;5.40;;
22388;SDS011;11362;48.102;11.620;2022-12-16T09:51:18;6.27;;;5.60;;
22388;SDS011;11362;48.102;11.620;2022-12-16T09:53:45;6.27;;;5.67;;
22388;SDS011;11362;48.102;11.620;2022-12-16T09:56:15;5.57;;;5.17;;
22388;SDS011;11362;48.102;11.620;2022-12-16T09:58:44;5.40;;;5.00;;
22388;SDS011;11362;48.102;11.620;2022-12-16T10:01:15;5.80;;;5.07;;
22388;SDS011;11362;48.102;11.620;2022-12-16T10:03:40;5.37;;;4.97;;
22388;SDS011;11362;48.102;11.620;2022-12-16T10:06:09;6.37;;;5.87;;
22388;SDS011;11362;48.102;11.620;2022-12-16T10:08:49;5.93;;;5.33;;
22388;SDS011;11362;48.102;11.620;2022-12-16T10:14:22;5.90;;;5.40;;
22388;SDS011;11362;48.102;11.620;2022-12-16T10:17:07;6.50;;;5.87;;
22388;SDS011;11362;48.102;11.620;2022-12-16T10:19:40;6.30;;;5.37;;
22388;SDS011;11362;48.102;11.620;2022-12-16T10:22:28;6.87;;;5.57;;
22388;SDS011;11362;48.102;11.620;2022-12-16T10:25:17;7.60;;;5.90;;
22388;SDS011;11362;48.102;11.620;2022-12-16T10:27:46;6.37;;;5.77;;
22388;SDS011;11362;48.102;11.620;2022-12-16T10:30:13;6.77;;;6.10;;
22388;SDS011;11362;48.102;11.620;2022-12-16T10:32:44;5.83;;;5.30;;
22388;SDS011;11362;48.102;11.620;2022-12-16T10:35:18;5.63;;;5.13;;
22388;SDS011;11362;48.102;11.620;2022-12-16T10:37:48;5.80;;;5.30;;
22388;SDS011;11362;48.102;11.620;2022-12-16T10:40:14;5.60;;;4.93;;
22388;SDS011;11362;48.102;11.620;2022-12-16T10:42:46;9.33;;;5.57;;
22388;SDS011;11362;48.102;11.620;2022-12-16T10:45:20;8.00;;;5.80;;
22388;SDS011;11362;48.102;11.620;2022-12-16T10:47:54;8.30;;;5.83;;
22388;SDS011;11362;48.102;11.620;2022-12-16T10:50:19;12.93;;;5.97;;
22388;SDS011;11362;48.102;11.620;2022-12-16T10:55:34;10.00;;;5.80;;
22388;SDS011;11362;48.102;11.620;2022-12-16T10:58:16;7.40;;;6.43;;
22388;SDS011;11362;48.102;11.620;2022-12-16T11:00:50;12.63;;;6.00;;
22388;SDS011;11362;48.102;11.620;2022-12-16T11:03:20;8.07;;;5.63;;
22388;SDS011;11362;48.102;11.620;2022-12-16T11:05:47;6.83;;;5.60;;
22388;SDS011;11362;48.102;11.620;2022-12-16T11:08:23;8.63;;;5.67;;
22388;SDS011;11362;48.102;11.620;2022-12-16T11:10:53;17.77;;;7.90;;
22388;SDS011;11362;48.102;11.620;2022-12-16T11:13:20;10.63;;;5.83;;
22388;SDS011;11362;48.102;11.620;2022-12-16T11:16:04;11.40;;;7.17;;
22388;SDS011;11362;48.102;11.620;2022-12-16T11:18:32;14.70;;;13.13;;
22388;SDS011;11362;48.102;11.620;2022-12-16T11:21:19;16.93;;;9.47;;
22388;SDS011;11362;48.102;11.620;2022-12-16T11:23:45;12.63;;;8.73;;
22388;SDS011;11362;48.102;11.620;2022-12-16T11:28:40;11.63;;;8.50;;
22388;SDS011;11362;48.102;11.620;2022-12-16T11:31:06;20.30;;;8.87;;
22388;SDS011;11362;48.102;11.620;2022-12-16T11:33:38;10.50;;;8.17;;
22388;SDS011;11362;48.102;11.620;2022-12-16T11:36:26;10.70;;;8.07;;
22388;SDS011;11362;48.102;11.620;2022-12-16T11:38:51;13.97;;;11.67;;
22388;SDS011;11362;48.102;11.620;2022-12-16T11:41:21;12.40;;;10.60;;
22388;SDS011;11362;48.102;11.620;2022-12-16T11:43:49;13.83;;;9.57;;
22388;SDS011;11362;48.102;11.620;2022-12-16T11:46:26;11.40;;;8.63;;
22388;SDS011;11362;48.102;11.620;2022-12-16T11:48:59;10.13;;;8.57;;
22388;SDS011;11362;48.102;11.620;2022-12-16T11:51:26;12.13;;;9.10;;
22388;SDS011;11362;48.102;11.620;2022-12-16T11:56:48;10.63;;;8.40;;
22388;SDS011;11362;48.102;11.620;2022-12-16T12:02:22;8.60;;;6.87;;
22388;SDS011;11362;48.102;11.620;2022-12-16T12:04:55;12.93;;;8.70;;
22388;SDS011;11362;48.102;11.620;2022-12-16T12:09:51;10.73;;;7.43;;
22388;SDS011;11362;48.102;11.620;2022-12-16T12:14:59;15.70;;;7.07;;
22388;SDS011;11362;48.102;11.620;2022-12-16T12:17:56;10.87;;;6.97;;
22388;SDS011;11362;48.102;11.620;2022-12-16T12:23:01;8.97;;;7.87;;
22388;SDS011;11362;48.102;11.620;2022-12-16T12:25:34;7.33;;;6.63;;
22388;SDS011;11362;48.102;11.620;2022-12-16T12:28:15;10.87;;;7.17;;
22388;SDS011;11362;48.102;11.620;2022-12-16T12:30:56;8.17;;;6.60;;
22388;SDS011;11362;48.102;11.620;2022-12-16T12:33:33;10.67;;;9.50;;
22388;SDS011;11362;48.102;11.620;2022-12-16T12:42:00;7.97;;;6.67;;
22388;SDS011;11362;48.102;11.620;2022-12-16T12:44:47;7.23;;;6.53;;
22388;SDS011;11362;48.102;11.620;2022-12-16T12:47:22;8.60;;;6.70;;
22388;SDS011;11362;48.102;11.620;2022-12-16T12:49:51;7.00;;;6.30;;
22388;SDS011;11362;48.102;11.620;2022-12-16T12:52:29;7.13;;;6.43;;
22388;SDS011;11362;48.102;11.620;2022-12-16T12:55:25;6.87;;;6.17;;
22388;SDS011;11362;48.102;11.620;2022-12-16T12:58:05;9.10;;;7.03;;
22388;SDS011;11362;48.102;11.620;2022-12-16T13:00:32;7.47;;;6.77;;
22388;SDS011;11362;48.102;11.620;2022-12-16T13:03:18;7.43;;;6.33;;
22388;SDS011;11362;48.102;11.620;2022-12-16T13:06:03;7.60;;;6.50;;
22388;SDS011;11362;48.102;11.620;2022-12-16T13:11:11;6.43;;;5.80;;
22388;SDS011;11362;48.102;11.620;2022-12-16T13:13:37;7.17;;;6.47;;
22388;SDS011;11362;48.102;11.620;2022-12-16T13:16:03;7.57;;;6.87;;
22388;SDS011;11362;48.102;11.620;2022-12-16T13:18:33;7.60;;;6.80;;
22388;SDS011;11362;48.102;11.620;2022-12-16T13:20:58;7.33;;;6.40;;
22388;SDS011;11362;48.102;11.620;2022-12-16T13:25:55;6.70;;;6.00;;
22388;SDS011;11362;48.102;11.620;2022-12-16T13:28:33;7.13;;;6.43;;
22388;SDS011;11362;48.102;11.620;2022-12-16T13:31:02;7.23;;;6.53;;
22388;SDS011;11362;48.102;11.620;2022-12-16T13:33:32;9.73;;;6.27;;
22388;SDS011;11362;48.102;11.620;2022-12-16T13:35:57;7.00;;;6.40;;
22388;SDS011;11362;48.102;11.620;2022-12-16T13:38:24;6.70;;;6.10;;
22388;SDS011;11362;48.102;11.620;2022-12-16T13:40:54;6.90;;;6.20;;
22388;SDS011;11362;48.102;11.620;2022-12-16T13:46:12;11.57;;;8.83;;
22388;SDS011;11362;48.102;11.620;2022-12-16T13:48:39;8.97;;;7.43;;
22388;SDS011;11362;48.102;11.620;2022-12-16T13:51:05;9.70;;;7.87;;
22388;SDS011;11362;48.102;11.620;2022-12-16T13:53:51;9.53;;;7.97;;
22388;SDS011;11362;48.102;11.620;2022-12-16T13:56:19;10.70;;;8.07;;
22388;SDS011;11362;48.102;11.620;2022-12-16T13:58:50;8.43;;;7.50;;
22388;SDS011;11362;48.102;11.620;2022-12-16T14:01:20;8.43;;;7.63;;
22388;SDS011;11362;48.102;11.620;2022-12-16T14:03:51;8.73;;;7.47;;
22388;SDS011;11362;48.102;11.620;2022-12-16T14:06:18;7.73;;;6.93;;
22388;SDS011;11362;48.102;11.620;2022-12-16T14:08:48;8.03;;;7.23;;
22388;SDS011;11362;48.102;11.620;2022-12-16T14:11:18;8.30;;;7.43;;
22388;SDS011;11362;48.102;11.620;2022-12-16T14:13:57;7.97;;;7.17;;
22388;SDS011;11362;48.102;11.620;2022-12-16T14:22:19;7.50;;;6.80;;
22388;SDS011;11362;48.102;11.620;2022-12-16T14:24:48;8.67;;;7.00;;
22388;SDS011;11362;48.102;11.620;2022-12-16T14:27:17;7.13;;;6.43;;
22388;SDS011;11362;48.102;11.620;2022-12-16T14:29:45;7.23;;;6.53;;
22388;SDS011;11362;48.102;11.620;2022-12-16T14:32:31;7.30;;;6.60;;
22388;SDS011;11362;48.102;11.620;2022-12-16T14:35:01;7.37;;;6.03;;
22388;SDS011;11362;48.102;11.620;2022-12-16T14:39:59;7.60;;;6.77;;
22388;SDS011;11362;48.102;11.620;2022-12-16T14:42:26;7.20;;;6.50;;
22388;SDS011;11362;48.102;11.620;2022-12-16T14:44:53;7.03;;;6.43;;
22388;SDS011;11362;48.102;11.620;2022-12-16T14:47:19;6.73;;;6.03;;
22388;SDS011;11362;48.102;11.620;2022-12-16T14:49:49;7.57;;;6.83;;
22388;SDS011;11362;48.102;11.620;2022-12-16T14:52:23;7.67;;;6.30;;
22388;SDS011;11362;48.102;11.620;2022-12-16T14:54:50;7.00;;;6.30;;
22388;SDS011;11362;48.102;11.620;2022-12-16T14:57:17;9.57;;;6.37;;
22388;SDS011;11362;48.102;11.620;2022-12-16T14:59:44;6.97;;;5.80;;
22388;SDS011;11362;48.102;11.620;2022-12-16T15:04:48;9.07;;;7.00;;
22388;SDS011;11362;48.102;11.620;2022-12-16T15:07:13;7.40;;;6.53;;
22388;SDS011;11362;48.102;11.620;2022-12-16T15:09:41;8.93;;;6.63;;
22388;SDS011;11362;48.102;11.620;2022-12-16T15:12:10;10.63;;;6.80;;
22388;SDS011;11362;48.102;11.620;2022-12-16T15:14:37;10.30;;;6.37;;
22388;SDS011;11362;48.102;11.620;2022-12-16T15:17:04;13.57;;;5.93;;
22388;SDS011;11362;48.102;11.620;2022-12-16T15:19:31;6.73;;;5.67;;
22388;SDS011;11362;48.102;11.620;2022-12-16T15:22:03;13.13;;;6.03;;
22388;SDS011;11362;48.102;11.620;2022-12-16T15:24:30;7.17;;;6.30;;
22388;SDS011;11362;48.102;11.620;2022-12-16T15:29:44;10.33;;;6.30;;
22388;SDS011;11362;48.102;11.620;2022-12-16T15:34:55;11.70;;;6.40;;
22388;SDS011;11362;48.102;11.620;2022-12-16T15:37:22;10.93;;;5.93;;
22388;SDS011;11362;48.102;11.620;2022-12-16T15:39:59;9.07;;;6.03;;
22388;SDS011;11362;48.102;11.620;2022-12-16T15:42:25;10.17;;;5.83;;
22388;SDS011;11362;48.102;11.620;2022-12-16T15:44:52;10.90;;;6.10;;
22388;SDS011;11362;48.102;11.620;2022-12-16T15:47:18;8.40;;;6.27;;
22388;SDS011;11362;48.102;11.620;2022-12-16T15:49:49;12.17;;;5.90;;
22388;SDS011;11362;48.102;11.620;2022-12-16T15:55:20;7.03;;;5.60;;
22388;SDS011;11362;48.102;11.620;2022-12-16T15:57:53;11.63;;;6.33;;
22388;SDS011;11362;48.102;11.620;2022-12-16T16:00:26;12.90;;;6.57;;
22388;SDS011;11362;48.102;11.620;2022-12-16T16:02:54;12.23;;;5.77;;
22388;SDS011;11362;48.102;11.620;2022-12-16T16:05:21;11.93;;;5.87;;
22388;SDS011;11362;48.102;11.620;2022-12-16T16:07:48;10.70;;;5.80;;